Time;durP1;ratioP1;P1;durP2;ratioP2;P2;SDS_P1;SDS_P2;PMS_P1;PMS_P2;Temp;Humidity;BMP_temperature;BMP_pressure;BME280_temperature;BME280_humidity;BME280_pressure;Samples;Min_cycle;Max_cycle;Signal;HPM_P1;HPM_P2
2022/06/30 00:00:15;;;;;;;;;;;;;;;17.02;46.37;100629.56;4960348;28;1082;-49
2022/06/30 00:02:40;;;;;;;;;;;;;;;17.06;45.99;100627.91;4960712;28;1019;-48
2022/06/30 00:05:06;;;;;;;;;;;;;;;17.01;45.96;100636.19;4960517;29;1224;-50
2022/06/30 00:07:31;;;;;;;;;;;;;;;16.99;45.83;100623.81;4960329;28;1910;-50
2022/06/30 00:09:57;;;;;;;;;;;;;;;17.95;47.08;100621.69;4960181;29;1066;-47
2022/06/30 00:12:22;;;;;;;;;;;;;;;17.35;47.67;100613.50;4961405;28;1231;-47
2022/06/30 00:14:48;;;;;;;;;;;;;;;17.15;47.55;100611.66;4960601;29;1041;-47
2022/06/30 00:17:13;;;;;;;;;;;;;;;17.08;46.89;100622.13;4960392;28;860;-51
2022/06/30 00:19:39;;;;;;;;;;;;;;;17.10;46.74;100620.75;4959716;29;1229;-51
2022/06/30 00:22:06;;;;;;;;;;;;;;;17.08;46.26;100622.13;4958693;28;925;-48
2022/06/30 00:24:32;;;;;;;;;;;;;;;17.01;46.26;100627.94;4960286;28;1031;-51
2022/06/30 00:26:57;;;;;;;;;;;;;;;16.96;46.09;100624.34;4959953;29;1010;-48
2022/06/30 00:29:23;;;;;;;;;;;;;;;17.01;45.78;100621.59;4959947;28;1906;-45
2022/06/30 00:31:48;;;;;;;;;;;;;;;16.94;45.77;100621.91;4959795;28;1022;-51
2022/06/30 00:34:13;;;;;;;;;;;;;;;16.95;45.78;100618.06;4959882;29;1030;-51
2022/06/30 00:36:39;;;;;;;;;;;;;;;16.83;45.71;100621.09;4955054;28;1339;-51
2022/06/30 00:39:04;;;;;;;;;;;;;;;16.87;45.76;100621.34;4960262;28;1007;-52
2022/06/30 00:41:30;;;;;;;;;;;;;;;17.84;46.44;100616.50;4959826;29;1200;-51
2022/06/30 00:43:55;;;;;;;;;;;;;;;17.23;47.49;100613.81;4959432;29;999;-51
2022/06/30 00:46:21;;;;;;;;;;;;;;;17.07;47.13;100621.31;4959820;28;1102;-51
2022/06/30 00:48:46;;;;;;;;;;;;;;;16.98;46.79;100622.16;4942429;29;1906;-52
2022/06/30 00:51:12;;;;;;;;;;;;;;;17.02;46.56;100623.25;4953156;28;1053;-52
2022/06/30 00:53:38;;;;;;;;;;;;;;;16.94;46.08;100619.16;4959467;28;1210;-50
2022/06/30 00:56:04;;;;;;;;;;;;;;;16.89;46.34;100624.69;4959306;29;1114;-50
2022/06/30 00:58:29;;;;;;;;;;;;;;;17.46;46.75;100617.03;4958818;28;1232;-49
2022/06/30 01:00:55;;;;;;;;;;;;;;;17.48;47.56;100627.72;4942385;29;1423;-50
2022/06/30 01:03:20;;;;;;;;;;;;;;;17.25;47.23;100613.53;4959691;28;1232;-51
2022/06/30 01:05:45;;;;;;;;;;;;;;;17.16;46.91;100624.28;4941322;28;1145;-51
2022/06/30 01:08:11;;;;;;;;;;;;;;;17.15;46.83;100630.06;4944845;29;1906;-50
2022/06/30 01:13:20;;;;;;;;;;;;;;;17.23;47.86;100627.56;4959132;28;1062;-49
2022/06/30 01:15:46;;;;;;;;;;;;;;;17.17;47.25;100628.69;4959022;28;1296;-50
2022/06/30 01:18:11;;;;;;;;;;;;;;;17.13;46.82;100632.28;4959116;29;1082;-50
2022/06/30 01:20:38;;;;;;;;;;;;;;;17.09;46.36;100634.75;4958750;28;1035;-49
2022/06/30 01:23:03;;;;;;;;;;;;;;;17.00;46.33;100631.78;4958411;28;1074;-48
2022/06/30 01:25:29;;;;;;;;;;;;;;;17.01;46.02;100633.44;4959060;28;1022;-51
2022/06/30 01:27:55;;;;;;;;;;;;;;;16.99;45.86;100629.31;4962568;28;1899;-49
2022/06/30 01:30:21;;;;;;;;;;;;;;;16.92;45.80;100624.94;4959467;28;1086;-48
2022/06/30 01:32:46;;;;;;;;;;;;;;;16.95;45.83;100618.06;4963654;28;999;-51
2022/06/30 01:35:12;;;;;;;;;;;;;;;17.71;46.95;100626.22;4959752;28;1137;-49
2022/06/30 01:38:03;;;;;;;;;;;;;;;17.33;47.33;100623.94;4958864;28;1094;-49
2022/06/30 01:40:29;;;;;;;;;;;;;;;17.17;46.96;100620.44;4951294;28;1082;-46
2022/06/30 01:42:55;;;;;;;;;;;;;;;17.03;46.67;100622.97;4958820;28;1142;-48
2022/06/30 01:45:21;;;;;;;;;;;;;;;17.08;46.17;100631.22;4965276;28;967;-50
2022/06/30 01:47:46;;;;;;;;;;;;;;;17.19;46.69;100633.91;4958183;28;1980;-49
2022/06/30 01:50:13;;;;;;;;;;;;;;;17.47;47.57;100635.13;4958095;28;1224;-46
2022/06/30 01:52:38;;;;;;;;;;;;;;;17.16;47.50;100635.28;4957767;29;1448;-48
2022/06/30 01:55:05;;;;;;;;;;;;;;;17.10;46.91;100631.72;4962563;28;1058;-51
2022/06/30 01:57:31;;;;;;;;;;;;;;;17.12;46.64;100636.13;4958587;29;1070;-49
2022/06/30 01:59:56;;;;;;;;;;;;;;;16.99;46.21;100640.31;4960979;28;1034;-44
2022/06/30 02:02:22;;;;;;;;;;;;;;;17.00;46.11;100625.44;4957958;28;908;-47
2022/06/30 02:04:47;;;;;;;;;;;;;;;17.52;46.50;100620.56;4962548;28;1047;-51
2022/06/30 02:07:13;;;;;;;;;;;;;;;17.50;47.24;100628.25;4957764;28;1005;-51
2022/06/30 02:09:38;;;;;;;;;;;;;;;17.16;47.16;100623.47;4960431;28;1983;-50
2022/06/30 02:14:48;;;;;;;;;;;;;;;17.04;46.63;100632.88;4959133;28;924;-50
2022/06/30 02:17:14;;;;;;;;;;;;;;;17.70;46.95;100635.59;4940743;29;1075;-50
2022/06/30 02:19:39;;;;;;;;;;;;;;;17.50;47.70;100637.34;4958036;28;1146;-51
2022/06/30 02:22:04;;;;;;;;;;;;;;;17.30;47.65;100635.50;4957820;28;893;-51
2022/06/30 02:24:30;;;;;;;;;;;;;;;17.23;47.16;100637.75;4958183;28;968;-51
2022/06/30 02:26:55;;;;;;;;;;;;;;;17.27;47.38;100633.31;4957788;29;848;-47
2022/06/30 02:29:21;;;;;;;;;;;;;;;17.67;47.88;100639.72;4962541;28;1989;-48
2022/06/30 02:31:46;;;;;;;;;;;;;;;17.38;47.99;100631.34;4958017;29;1077;-49
2022/06/30 02:34:12;;;;;;;;;;;;;;;17.28;47.18;100648.72;4957664;28;1081;-52
2022/06/30 02:36:37;;;;;;;;;;;;;;;17.18;46.65;100644.09;4955863;28;1225;-51
2022/06/30 02:39:03;;;;;;;;;;;;;;;17.15;46.48;100641.06;4958019;29;1085;-49
2022/06/30 02:41:28;;;;;;;;;;;;;;;17.15;46.06;100636.38;4957938;28;1298;-52
2022/06/30 02:43:54;;;;;;;;;;;;;;;17.07;45.96;100654.28;4958205;29;991;-50
2022/06/30 02:46:19;;;;;;;;;;;;;;;17.02;45.88;100646.03;4958160;28;1145;-52
2022/06/30 02:48:45;;;;;;;;;;;;;;;17.73;47.24;100646.81;4957371;28;1914;-49
2022/06/30 02:51:10;;;;;;;;;;;;;;;17.26;47.33;100648.16;4957134;29;975;-54
2022/06/30 02:53:35;;;;;;;;;;;;;;;17.19;47.27;100642.97;4962360;28;1126;-51
2022/06/30 02:56:01;;;;;;;;;;;;;;;17.17;46.59;100647.13;4957823;28;1069;-51
2022/06/30 02:58:26;;;;;;;;;;;;;;;17.08;46.54;100644.09;4956843;28;1490;-58
2022/06/30 03:00:52;;;;;;;;;;;;;;;17.06;46.34;100638.06;4958949;28;1142;-51
2022/06/30 03:03:17;;;;;;;;;;;;;;;17.01;46.27;100633.44;4961418;29;999;-55
2022/06/30 03:05:42;;;;;;;;;;;;;;;17.94;46.76;100643.97;4956416;28;1098;-55
2022/06/30 03:08:08;;;;;;;;;;;;;;;17.45;47.82;100632.69;4960577;29;1984;-53
2022/06/30 03:10:33;;;;;;;;;;;;;;;17.18;47.63;100637.75;4961411;28;967;-56
2022/06/30 03:12:59;;;;;;;;;;;;;;;17.22;47.04;100638.84;4961577;28;1019;-52
2022/06/30 03:15:24;;;;;;;;;;;;;;;17.10;46.69;100637.22;4961813;28;1054;-55
2022/06/30 03:17:50;;;;;;;;;;;;;;;17.08;46.67;100635.88;4960803;29;967;-55
2022/06/30 03:20:15;;;;;;;;;;;;;;;17.08;46.27;100633.13;4961209;28;1057;-55
2022/06/30 03:22:40;;;;;;;;;;;;;;;17.08;46.16;100633.13;4957829;28;1121;-52
2022/06/30 03:25:07;;;;;;;;;;;;;;;18.09;46.80;100630.09;4961258;29;988;-50
2022/06/30 03:27:32;;;;;;;;;;;;;;;17.35;48.03;100627.25;4961411;28;1989;-52
2022/06/30 03:29:58;;;;;;;;;;;;;;;17.23;47.66;100626.75;4961018;28;987;-51
2022/06/30 03:32:23;;;;;;;;;;;;;;;17.20;47.20;100622.63;4961056;28;1014;-55
2022/06/30 03:34:49;;;;;;;;;;;;;;;17.17;46.68;100631.44;4961452;28;1220;-54
2022/06/30 03:37:14;;;;;;;;;;;;;;;18.24;47.16;100636.59;4960490;29;969;-50
2022/06/30 03:39:40;;;;;;;;;;;;;;;17.44;48.22;100628.28;4963257;28;1163;-52
2022/06/30 03:42:05;;;;;;;;;;;;;;;17.34;47.80;100633.03;4961282;29;1134;-56
2022/06/30 03:44:31;;;;;;;;;;;;;;;17.18;47.34;100626.75;4961225;28;1090;-54
2022/06/30 03:46:56;;;;;;;;;;;;;;;17.17;47.01;100630.63;4961114;28;971;-55
2022/06/30 03:49:22;;;;;;;;;;;;;;;17.18;46.51;100629.50;4961059;29;1906;-55
2022/06/30 03:51:47;;;;;;;;;;;;;;;17.09;46.43;100641.06;4959783;28;1213;-54
2022/06/30 03:54:13;;;;;;;;;;;;;;;17.19;46.88;100640.22;4965836;28;1161;-57
2022/06/30 03:56:40;;;;;;;;;;;;;;;17.07;46.81;100632.31;4960069;28;1276;-55
2022/06/30 03:59:05;;;;;;;;;;;;;;;17.03;46.75;100630.41;4953472;28;1291;-50
2022/06/30 04:01:30;;;;;;;;;;;;;;;17.07;46.47;100637.78;4959291;29;1193;-49
2022/06/30 04:03:56;;;;;;;;;;;;;;;17.05;46.45;100630.94;4959896;28;1151;-53
2022/06/30 04:06:23;;;;;;;;;;;;;;;17.01;46.12;100633.44;4963179;28;1413;-54
2022/06/30 04:08:48;;;;;;;;;;;;;;;17.96;47.45;100633.50;4959691;28;1899;-56
2022/06/30 04:11:14;;;;;;;;;;;;;;;17.35;48.16;100638.25;4963812;28;1038;-54
2022/06/30 04:13:39;;;;;;;;;;;;;;;17.27;47.60;100658.06;4963099;28;1019;-52
2022/06/30 04:16:04;;;;;;;;;;;;;;;17.13;47.10;100655.09;4965295;28;1023;-55
2022/06/30 04:18:30;;;;;;;;;;;;;;;17.03;47.11;100647.69;4960508;29;1085;-50
2022/06/30 04:20:55;;;;;;;;;;;;;;;17.07;46.72;100643.28;4959144;28;1165;-55
2022/06/30 04:23:21;;;;;;;;;;;;;;;17.04;46.62;100638.38;4960595;29;1026;-56
2022/06/30 04:25:46;;;;;;;;;;;;;;;18.34;47.11;100641.19;4960615;29;955;-56
2022/06/30 04:28:12;;;;;;;;;;;;;;;14.80;57.28;100646.78;4960511;29;1906;-54
2022/06/30 04:33:21;;;;;;;;;;;;;;;15.89;57.01;100657.09;4959738;29;1050;-53
2022/06/30 04:35:46;;;;;;;;;;;;;;;16.91;55.69;100649.94;4960586;28;1192;-51
2022/06/30 04:38:11;;;;;;;;;;;;;;;18.83;51.64;100666.88;4960375;29;1118;-55
2022/06/30 04:43:21;;;;;;;;;;;;;;;16.75;52.78;100663.66;4960163;29;1002;-52
2022/06/30 04:45:46;;;;;;;;;;;;;;;16.94;50.80;100660.34;4959719;29;971;-55
2022/06/30 04:48:12;;;;;;;;;;;;;;;16.88;49.86;100653.22;4964000;28;1906;-54
2022/06/30 04:50:38;;;;;;;;;;;;;;;16.97;49.10;100659.81;4957821;29;1410;-53
2022/06/30 04:53:03;;;;;;;;;;;;;;;16.88;48.60;100650.47;4964960;28;1317;-50
2022/06/30 04:55:29;;;;;;;;;;;;;;;17.51;49.68;100660.16;4964399;28;1181;-50
2022/06/30 04:57:54;;;;;;;;;;;;;;;17.38;50.55;100665.16;4959935;29;1030;-53
2022/06/30 05:00:20;;;;;;;;;;;;;;;17.23;49.54;100667.97;4962547;28;1192;-49
2022/06/30 05:02:45;;;;;;;;;;;;;;;17.14;49.18;100675.97;4958683;29;1332;-51
2022/06/30 05:05:10;;;;;;;;;;;;;;;17.09;48.59;100673.22;4964032;28;1275;-52
2022/06/30 05:07:36;;;;;;;;;;;;;;;17.06;48.29;100669.09;4961704;28;1910;-52
2022/06/30 05:10:02;;;;;;;;;;;;;;;17.06;47.73;100669.09;4960257;28;1132;-49
2022/06/30 05:12:28;;;;;;;;;;;;;;;17.05;47.38;100672.94;4959174;28;1183;-52
2022/06/30 05:14:53;;;;;;;;;;;;;;;16.95;47.42;100677.66;4958878;29;1216;-51
2022/06/30 05:17:18;;;;;;;;;;;;;;;17.99;48.25;100685.19;4963560;28;1195;-52
2022/06/30 05:19:44;;;;;;;;;;;;;;;17.41;48.99;100675.56;4949360;28;1144;-53
2022/06/30 05:22:09;;;;;;;;;;;;;;;17.25;48.72;100683.06;4959179;29;1172;-50
2022/06/30 05:27:19;;;;;;;;;;;;;;;17.17;47.59;100680.91;4962382;28;1019;-52
2022/06/30 05:29:44;;;;;;;;;;;;;;;17.12;47.45;100672.66;4959135;29;2053;-51
2022/06/30 05:32:09;;;;;;;;;;;;;;;17.14;47.24;100683.38;4961392;28;1023;-51
2022/06/30 05:34:35;;;;;;;;;;;;;;;17.12;47.15;100682.84;4958184;29;1516;-55
2022/06/30 05:37:01;;;;;;;;;;;;;;;17.00;47.13;100685.88;4958980;28;1216;-52
2022/06/30 05:39:26;;;;;;;;;;;;;;;17.09;46.66;100698.75;4963044;28;1039;-52
2022/06/30 05:41:52;;;;;;;;;;;;;;;17.00;46.81;100696.88;4959052;29;1010;-51
2022/06/30 05:44:17;;;;;;;;;;;;;;;17.03;46.51;100691.66;4958625;29;1065;-53
2022/06/30 05:46:43;;;;;;;;;;;;;;;17.03;46.61;100696.34;4958776;29;979;-51
2022/06/30 05:49:09;;;;;;;;;;;;;;;16.98;46.75;100693.59;4941062;29;1983;-53
2022/06/30 05:51:35;;;;;;;;;;;;;;;17.23;47.18;100695.44;4959255;28;1129;-56
2022/06/30 05:54:00;;;;;;;;;;;;;;;17.56;48.28;100691.19;4958479;29;1098;-53
2022/06/30 05:56:25;;;;;;;;;;;;;;;18.29;47.88;100705.34;4956740;29;1351;-53
2022/06/30 05:58:51;;;;;;;;;;;;;;;17.90;49.17;100703.38;4957592;28;1173;-53
2022/06/30 06:01:18;;;;;;;;;;;;;;;17.75;49.76;100696.88;4953104;29;1209;-53
2022/06/30 06:03:43;;;;;;;;;;;;;;;17.63;50.31;100701.88;4961736;28;968;-55
2022/06/30 06:06:09;;;;;;;;;;;;;;;17.50;50.68;100705.22;4964005;28;902;-54
2022/06/30 06:08:34;;;;;;;;;;;;;;;17.49;50.94;100703.59;4958638;29;1973;-49
2022/06/30 06:11:00;;;;;;;;;;;;;;;17.41;51.53;100703.06;4963527;28;1193;-46
2022/06/30 06:13:25;;;;;;;;;;;;;;;17.39;51.77;100705.28;4958502;29;987;-49
2022/06/30 06:15:51;;;;;;;;;;;;;;;17.33;52.14;100702.84;4959060;28;1162;-50
2022/06/30 06:18:16;;;;;;;;;;;;;;;17.32;52.35;100701.19;4941645;29;1040;-47
2022/06/30 06:20:42;;;;;;;;;;;;;;;17.25;52.72;100706.97;4958071;28;1062;-53
2022/06/30 06:23:07;;;;;;;;;;;;;;;17.23;52.59;100704.50;4958295;28;1181;-52
2022/06/30 06:25:33;;;;;;;;;;;;;;;17.22;52.79;100704.78;4958404;28;870;-53
2022/06/30 06:30:43;;;;;;;;;;;;;;;17.10;53.53;100705.91;4957100;29;1331;-54
2022/06/30 06:33:08;;;;;;;;;;;;;;;17.11;53.51;100709.50;4955786;29;1224;-49
2022/06/30 06:35:33;;;;;;;;;;;;;;;17.05;53.71;100707.84;4953653;28;1181;-50
2022/06/30 06:38:00;;;;;;;;;;;;;;;17.03;54.17;100707.31;4953725;29;1200;-54
2022/06/30 06:40:26;;;;;;;;;;;;;;;17.02;54.32;100701.00;4956726;28;1264;-54
2022/06/30 06:42:51;;;;;;;;;;;;;;;16.99;54.31;100701.53;4955282;28;989;-50
2022/06/30 06:45:17;;;;;;;;;;;;;;;16.98;54.49;100699.91;4959883;28;1034;-53
2022/06/30 06:47:42;;;;;;;;;;;;;;;16.96;54.74;100696.63;4958035;29;1914;-53
2022/06/30 06:50:08;;;;;;;;;;;;;;;16.96;54.66;100690.28;4958442;28;1141;-51
2022/06/30 06:52:34;;;;;;;;;;;;;;;16.92;54.77;100692.78;4957789;29;1084;-55
2022/06/30 06:54:59;;;;;;;;;;;;;;;16.89;55.23;100696.09;4960185;28;1199;-50
2022/06/30 06:57:25;;;;;;;;;;;;;;;16.86;55.12;100694.69;4957657;28;1128;-49
2022/06/30 06:59:50;;;;;;;;;;;;;;;16.86;55.31;100702.13;4955973;28;1250;-51
2022/06/30 07:02:15;;;;;;;;;;;;;;;16.87;55.31;100698.25;4962584;28;1078;-51
2022/06/30 07:04:41;;;;;;;;;;;;;;;16.84;55.48;100690.56;4961734;28;971;-57
2022/06/30 07:07:06;;;;;;;;;;;;;;;16.81;55.59;100699.38;4961625;28;973;-51
2022/06/30 07:09:32;;;;;;;;;;;;;;;16.82;55.82;100701.84;4962607;28;1902;-52
2022/06/30 07:11:57;;;;;;;;;;;;;;;16.77;55.76;100699.91;4957965;29;1049;-48
2022/06/30 07:14:23;;;;;;;;;;;;;;;16.80;56.00;100697.72;4961741;28;1208;-51
2022/06/30 07:16:48;;;;;;;;;;;;;;;16.77;55.76;100699.09;4957636;29;1018;-50
2022/06/30 07:19:14;;;;;;;;;;;;;;;16.79;55.75;100705.13;4944477;28;1062;-52
2022/06/30 07:21:39;;;;;;;;;;;;;;;16.77;55.94;100694.44;4959913;28;965;-52
2022/06/30 07:24:05;;;;;;;;;;;;;;;16.74;56.13;100703.19;4955362;29;1363;-55
2022/06/30 07:26:30;;;;;;;;;;;;;;;16.71;56.02;100701.00;4957393;28;1362;-52
2022/06/30 07:28:56;;;;;;;;;;;;;;;16.71;56.28;100706.50;4959295;28;1976;-53
2022/06/30 07:31:22;;;;;;;;;;;;;;;16.70;56.32;100701.28;4962069;28;1456;-55
2022/06/30 07:33:47;;;;;;;;;;;;;;;16.68;56.18;100701.56;4960483;28;1240;-52
2022/06/30 07:36:13;;;;;;;;;;;;;;;16.70;56.16;100704.03;4956088;29;1280;-52
2022/06/30 07:38:40;;;;;;;;;;;;;;;16.67;56.23;100704.59;4961484;28;1185;-51
2022/06/30 07:41:05;;;;;;;;;;;;;;;16.66;56.38;100701.03;4955961;29;1474;-52
2022/06/30 07:43:31;;;;;;;;;;;;;;;16.68;56.62;100698.00;4960495;28;1034;-53
2022/06/30 07:45:56;;;;;;;;;;;;;;;16.65;56.50;100707.63;4958669;28;1267;-51
2022/06/30 07:48:21;;;;;;;;;;;;;;;16.60;56.73;100688.41;4960825;28;1926;-52
2022/06/30 07:50:47;;;;;;;;;;;;;;;16.61;56.51;100690.06;4963627;28;1379;-50
2022/06/30 07:53:12;;;;;;;;;;;;;;;16.60;56.86;100688.41;4960576;28;1393;-52
2022/06/30 07:55:38;;;;;;;;;;;;;;;16.58;56.77;100693.34;4961056;28;1215;-47
2022/06/30 07:58:04;;;;;;;;;;;;;;;16.59;56.73;100693.06;4961216;28;837;-51
2022/06/30 08:00:29;;;;;;;;;;;;;;;16.57;57.01;100695.25;4960702;29;1068;-50
2022/06/30 08:02:54;;;;;;;;;;;;;;;16.56;56.88;100684.56;4967132;28;1300;-50
2022/06/30 08:05:20;;;;;;;;;;;;;;;16.58;57.02;100685.94;4967577;28;1149;-50
2022/06/30 08:07:45;;;;;;;;;;;;;;;16.55;56.98;100688.38;4960909;29;1903;-51
2022/06/30 08:10:11;;;;;;;;;;;;;;;16.52;57.13;100702.66;4961874;28;1579;-50
2022/06/30 08:12:37;;;;;;;;;;;;;;;16.56;56.82;100692.78;4961806;28;1082;-50
2022/06/30 08:15:02;;;;;;;;;;;;;;;16.56;56.88;100692.78;4960937;28;851;-47
2022/06/30 08:17:28;;;;;;;;;;;;;;;16.56;56.87;100692.78;4966399;28;968;-50
2022/06/30 08:19:53;;;;;;;;;;;;;;;16.54;56.93;100695.00;4960742;29;1049;-49
2022/06/30 08:22:19;;;;;;;;;;;;;;;16.50;57.26;100688.41;4963973;28;975;-48
2022/06/30 08:24:44;;;;;;;;;;;;;;;16.50;57.04;100697.47;4964777;28;1000;-49
2022/06/30 08:27:10;;;;;;;;;;;;;;;16.55;56.92;100694.72;4960470;29;983;-50
2022/06/30 08:29:35;;;;;;;;;;;;;;;16.55;57.21;100699.38;4960518;28;1918;-52
2022/06/30 08:32:01;;;;;;;;;;;;;;;16.50;57.19;100693.91;4937915;29;1453;-50
2022/06/30 08:34:27;;;;;;;;;;;;;;;16.50;57.08;100697.47;4963056;28;940;-53
2022/06/30 08:36:52;;;;;;;;;;;;;;;16.50;57.01;100699.38;4942550;29;1114;-50
2022/06/30 08:42:04;;;;;;;;;;;;;;;16.49;57.16;100701.28;4961591;28;1023;-51
2022/06/30 08:44:31;;;;;;;;;;;;;;;16.48;57.39;100699.66;4959086;29;1172;-50
2022/06/30 08:46:56;;;;;;;;;;;;;;;16.51;57.11;100701.84;4940574;29;1340;-49
2022/06/30 08:49:22;;;;;;;;;;;;;;;16.47;57.24;100706.25;4958760;29;1950;-52
2022/06/30 08:51:47;;;;;;;;;;;;;;;16.47;57.22;100694.47;4957406;29;1793;-52
2022/06/30 08:54:13;;;;;;;;;;;;;;;16.46;57.46;100704.59;4941651;29;1424;-48
2022/06/30 08:56:40;;;;;;;;;;;;;;;16.47;57.49;100694.47;4942974;29;979;-49
2022/06/30 08:59:05;;;;;;;;;;;;;;;16.46;57.44;100701.03;4957890;28;1288;-51
2022/06/30 09:01:31;;;;;;;;;;;;;;;16.46;57.20;100692.81;4964462;28;871;-50
2022/06/30 09:03:57;;;;;;;;;;;;;;;16.49;57.45;100698.53;4958098;28;1288;-53
2022/06/30 09:06:22;;;;;;;;;;;;;;;16.48;57.23;100696.09;4957918;29;1461;-50
2022/06/30 09:08:48;;;;;;;;;;;;;;;16.48;57.24;100696.09;4958996;29;1910;-53
2022/06/30 09:11:13;;;;;;;;;;;;;;;16.47;57.49;100684.28;4960975;28;1336;-49
2022/06/30 09:13:42;;;;;;;;;;;;;;;16.42;57.72;100693.34;4943356;29;1437;-51
2022/06/30 09:16:08;;;;;;;;;;;;;;;16.45;57.36;100691.97;4964439;28;1540;-52
2022/06/30 09:18:33;;;;;;;;;;;;;;;16.46;57.62;100684.56;4959729;29;1033;-54
2022/06/30 09:20:59;;;;;;;;;;;;;;;16.45;57.44;100691.16;4957984;29;1242;-53
2022/06/30 09:23:25;;;;;;;;;;;;;;;16.49;57.52;100689.50;4956828;29;1288;-51
2022/06/30 09:25:51;;;;;;;;;;;;;;;16.47;57.42;100688.97;4958481;28;1039;-48
2022/06/30 09:28:37;;;;;;;;;;;;;;;16.45;57.58;100686.47;4957206;29;1988;-50
2022/06/30 09:31:02;;;;;;;;;;;;;;;16.47;57.53;100692.53;4957299;29;1343;-52
2022/06/30 09:33:39;;;;;;;;;;;;;;;16.50;57.29;100686.47;4958394;28;1351;-53
2022/06/30 09:36:23;;;;;;;;;;;;;;;16.48;57.40;100685.09;4957571;29;1277;-50
2022/06/30 09:39:18;;;;;;;;;;;;;;;16.46;57.73;100687.31;4960205;28;1046;-50
2022/06/30 09:41:44;;;;;;;;;;;;;;;16.49;57.48;100693.06;4934204;29;1334;-50
2022/06/30 09:44:35;;;;;;;;;;;;;;;16.46;57.54;100684.56;4960539;28;1232;-49
2022/06/30 09:47:01;;;;;;;;;;;;;;;16.46;57.69;100681.81;4953656;29;1263;-52
2022/06/30 09:49:46;;;;;;;;;;;;;;;16.46;57.57;100685.38;4960021;28;1910;-51
2022/06/30 09:52:21;;;;;;;;;;;;;;;16.50;57.59;100682.91;4956321;29;1184;-49
2022/06/30 09:54:57;;;;;;;;;;;;;;;16.51;57.88;100684.53;4959223;28;1220;-49
2022/06/30 09:57:24;;;;;;;;;;;;;;;16.47;57.61;100678.81;4960291;28;1461;-52
2022/06/30 09:59:59;;;;;;;;;;;;;;;16.47;57.72;100686.22;4941429;29;906;-50
2022/06/30 10:02:34;;;;;;;;;;;;;;;16.51;57.52;100684.53;4963142;28;991;-50
2022/06/30 10:05:00;;;;;;;;;;;;;;;16.47;57.76;100678.81;4961669;28;979;-51
2022/06/30 10:07:26;;;;;;;;;;;;;;;16.50;57.87;100670.00;4958807;28;1042;-47
2022/06/30 10:09:51;;;;;;;;;;;;;;;16.50;57.78;100677.44;4956731;28;1919;-48
2022/06/30 10:12:21;;;;;;;;;;;;;;;16.48;57.88;100669.47;4953004;29;1248;-51
2022/06/30 10:14:46;;;;;;;;;;;;;;;16.48;57.67;100671.38;4954563;29;1248;-50
2022/06/30 10:17:14;;;;;;;;;;;;;;;16.51;57.53;100668.06;4955307;29;1236;-47
2022/06/30 10:19:39;;;;;;;;;;;;;;;16.47;57.98;100675.25;4951841;29;1169;-49
2022/06/30 10:22:05;;;;;;;;;;;;;;;16.50;57.62;100669.19;4942004;29;1324;-49
2022/06/30 10:24:30;;;;;;;;;;;;;;;16.48;57.68;100674.13;4958124;29;963;-52
2022/06/30 10:27:14;;;;;;;;;;;;;;;16.49;57.58;100664.81;4960565;28;1462;-52
2022/06/30 10:29:47;;;;;;;;;;;;;;;16.49;57.56;100659.31;4942892;29;1975;-49
2022/06/30 10:32:14;;;;;;;;;;;;;;;16.48;57.75;100655.75;4938181;29;1196;-51
2022/06/30 10:34:40;;;;;;;;;;;;;;;16.49;57.56;100662.06;4958080;28;1287;-52
2022/06/30 10:37:24;;;;;;;;;;;;;;;16.51;57.51;100657.09;4955642;29;1334;-53
2022/06/30 10:39:50;;;;;;;;;;;;;;;16.50;57.60;100655.47;4957254;29;1070;-48
2022/06/30 10:42:34;;;;;;;;;;;;;;;16.47;57.96;100658.78;4957015;29;1179;-46
2022/06/30 10:44:59;;;;;;;;;;;;;;;16.44;57.88;100649.16;4957007;29;1504;-49
2022/06/30 10:47:24;;;;;;;;;;;;;;;16.48;57.64;100642.03;4957707;29;1204;-50
2022/06/30 10:49:50;;;;;;;;;;;;;;;16.51;57.71;100646.13;4939562;29;1981;-50
2022/06/30 10:52:24;;;;;;;;;;;;;;;16.50;57.38;100647.25;4958845;28;1034;-51
2022/06/30 10:54:49;;;;;;;;;;;;;;;16.46;57.59;100646.16;4953658;28;1098;-49
2022/06/30 10:57:16;;;;;;;;;;;;;;;16.47;57.55;100639.56;4940776;29;1187;-50
2022/06/30 10:59:42;;;;;;;;;;;;;;;16.49;57.62;100645.59;4950274;29;1292;-51
2022/06/30 11:02:10;;;;;;;;;;;;;;;16.50;57.60;100642.56;4955398;29;1199;-52
2022/06/30 11:04:36;;;;;;;;;;;;;;;16.48;57.49;100641.19;4955735;29;1133;-51
2022/06/30 11:07:06;;;;;;;;;;;;;;;16.48;57.53;100642.03;4942348;29;1062;-47
2022/06/30 11:09:44;;;;;;;;;;;;;;;16.45;57.65;100639.81;4951046;29;1983;-50
2022/06/30 11:12:13;;;;;;;;;;;;;;;16.47;57.60;100637.63;4954739;29;1225;-50
2022/06/30 11:14:54;;;;;;;;;;;;;;;16.48;57.53;100641.19;4959398;28;1038;-46
2022/06/30 11:17:21;;;;;;;;;;;;;;;16.47;57.55;100645.06;4956024;29;1489;-48
2022/06/30 11:19:47;;;;;;;;;;;;;;;16.47;57.61;100636.81;4955311;29;1251;-49
2022/06/30 11:22:16;;;;;;;;;;;;;;;16.46;57.64;100640.66;4960961;28;1276;-50
2022/06/30 11:24:42;;;;;;;;;;;;;;;16.47;57.67;100639.56;4959760;29;1263;-52
2022/06/30 11:27:23;;;;;;;;;;;;;;;16.51;57.52;100640.63;4961546;28;1482;-50
2022/06/30 11:29:49;;;;;;;;;;;;;;;16.47;57.81;100642.31;4950402;28;1927;-52
2022/06/30 11:32:14;;;;;;;;;;;;;;;16.47;57.75;100634.88;4961237;29;1018;-49
2022/06/30 11:34:40;;;;;;;;;;;;;;;16.49;57.58;100637.34;4964345;28;845;-50
2022/06/30 11:37:09;;;;;;;;;;;;;;;16.46;58.04;100633.22;4962990;28;1203;-47
2022/06/30 11:39:34;;;;;;;;;;;;;;;16.48;57.68;100630.22;4960813;29;1229;-52
2022/06/30 11:42:06;;;;;;;;;;;;;;;16.44;58.08;100629.97;4962715;28;1175;-45
2022/06/30 11:44:32;;;;;;;;;;;;;;;16.50;57.83;100631.59;4967754;28;1018;-47
2022/06/30 11:46:59;;;;;;;;;;;;;;;16.46;57.86;100629.69;4967173;28;972;-51
2022/06/30 11:49:29;;;;;;;;;;;;;;;16.47;58.10;100628.59;4964311;28;1903;-49
2022/06/30 11:51:55;;;;;;;;;;;;;;;16.48;57.90;100630.22;4940736;28;1378;-50
2022/06/30 11:54:21;;;;;;;;;;;;;;;16.47;57.91;100621.16;4966668;28;1048;-49
2022/06/30 11:56:48;;;;;;;;;;;;;;;16.51;57.52;100626.91;4942264;29;1249;-51
2022/06/30 11:59:13;;;;;;;;;;;;;;;16.47;57.82;100628.59;4959922;28;1168;-50
2022/06/30 12:01:39;;;;;;;;;;;;;;;16.44;57.65;100613.50;4959666;28;1165;-49
2022/06/30 12:04:11;;;;;;;;;;;;;;;16.45;57.61;100608.81;4942654;29;987;-49
2022/06/30 12:06:37;;;;;;;;;;;;;;;16.47;57.57;100607.44;4961202;28;866;-48
2022/06/30 12:09:02;;;;;;;;;;;;;;;16.47;57.74;100604.69;4960761;28;1902;-47
2022/06/30 12:11:30;;;;;;;;;;;;;;;16.45;57.76;100603.31;4961105;28;1148;-48
2022/06/30 12:13:56;;;;;;;;;;;;;;;16.46;57.67;100607.72;4960189;29;1022;-43
2022/06/30 12:16:21;;;;;;;;;;;;;;;16.47;57.67;100592.91;4960614;29;1298;-49
2022/06/30 12:18:47;;;;;;;;;;;;;;;16.45;57.51;100592.34;4958418;29;1318;-47
2022/06/30 12:21:12;;;;;;;;;;;;;;;16.45;57.54;100587.66;4958761;29;1529;-48
2022/06/30 12:23:39;;;;;;;;;;;;;;;16.46;57.55;100588.50;4959326;29;1196;-49
2022/06/30 12:26:05;;;;;;;;;;;;;;;16.42;57.65;100580.00;4941666;29;1206;-49
2022/06/30 12:28:42;;;;;;;;;;;;;;;16.45;57.62;100575.88;4943323;29;1968;-49
2022/06/30 12:31:08;;;;;;;;;;;;;;;16.41;57.81;100570.94;4966560;28;1236;-47
2022/06/30 12:33:42;;;;;;;;;;;;;;;16.41;57.87;100581.09;4958790;28;1236;-51
2022/06/30 12:36:07;;;;;;;;;;;;;;;16.46;57.57;100569.28;4958798;28;1540;-49
2022/06/30 12:38:33;;;;;;;;;;;;;;;16.43;57.60;100574.22;4958737;28;1231;-50
2022/06/30 12:41:06;;;;;;;;;;;;;;;16.42;57.71;100575.34;4942349;29;1426;-46
2022/06/30 12:43:40;;;;;;;;;;;;;;;16.44;57.62;100575.06;4956211;29;1182;-46
2022/06/30 12:46:06;;;;;;;;;;;;;;;16.42;57.54;100578.09;4956624;29;1030;-49
2022/06/30 12:48:40;;;;;;;;;;;;;;;16.43;57.73;100578.91;4960361;29;1963;-48
2022/06/30 12:51:06;;;;;;;;;;;;;;;16.42;57.87;100577.25;4965561;28;1208;-49
2022/06/30 12:53:31;;;;;;;;;;;;;;;16.44;57.71;100580.56;4960026;29;1163;-45
2022/06/30 12:56:04;;;;;;;;;;;;;;;16.43;57.67;100589.88;4960289;29;1141;-48
2022/06/30 12:59:05;;;;;;;;;;;;;;;16.43;57.59;100592.63;4959791;29;1050;-47
2022/06/30 13:01:31;;;;;;;;;;;;;;;16.41;57.75;100592.91;4895197;29;1123;-46
2022/06/30 13:04:00;;;;;;;;;;;;;;;16.45;57.61;100598.66;4947387;29;991;-44